sensor_id;sensor_type;location;lat;lon;timestamp;pressure;altitude;pressure_sealevel;temperature;humidity
76205;BME280;64986;55.672;37.628;2023-04-24T00:02:13;99479.19;;;12.71;34.33
76205;BME280;64986;55.672;37.628;2023-04-24T00:04:38;99474.28;;;12.74;34.27
76205;BME280;64986;55.672;37.628;2023-04-24T00:07:06;99480.22;;;12.70;34.60
76205;BME280;64986;55.672;37.628;2023-04-24T00:09:32;99479.03;;;12.66;34.29
76205;BME280;64986;55.672;37.628;2023-04-24T00:11:58;99469.78;;;12.57;34.25
76205;BME280;64986;55.672;37.628;2023-04-24T00:14:24;99478.22;;;12.47;35.17
76205;BME280;64986;55.672;37.628;2023-04-24T00:16:49;99480.16;;;12.33;35.74
76205;BME280;64986;55.672;37.628;2023-04-24T00:19:15;99476.97;;;12.25;35.29
76205;BME280;64986;55.672;37.628;2023-04-24T00:21:41;99474.72;;;12.28;35.43
76205;BME280;64986;55.672;37.628;2023-04-24T00:24:07;99475.44;;;12.17;36.30
76205;BME280;64986;55.672;37.628;2023-04-24T00:26:34;99470.78;;;12.12;36.71
76205;BME280;64986;55.672;37.628;2023-04-24T00:28:59;99472.88;;;12.04;36.03
76205;BME280;64986;55.672;37.628;2023-04-24T00:31:25;99477.56;;;12.02;36.26
76205;BME280;64986;55.672;37.628;2023-04-24T00:33:51;99480.56;;;12.05;36.57
76205;BME280;64986;55.672;37.628;2023-04-24T00:36:16;99463.00;;;11.92;36.39
76205;BME280;64986;55.672;37.628;2023-04-24T00:38:42;99474.00;;;11.89;36.71
76205;BME280;64986;55.672;37.628;2023-04-24T00:41:07;99473.81;;;11.84;36.73
76205;BME280;64986;55.672;37.628;2023-04-24T00:43:33;99476.63;;;11.89;36.36
76205;BME280;64986;55.672;37.628;2023-04-24T00:45:58;99481.28;;;11.94;36.48
76205;BME280;64986;55.672;37.628;2023-04-24T00:48:26;99481.41;;;11.99;36.24
76205;BME280;64986;55.672;37.628;2023-04-24T00:50:52;99479.81;;;11.98;36.45
76205;BME280;64986;55.672;37.628;2023-04-24T00:53:18;99486.91;;;11.98;36.64
76205;BME280;64986;55.672;37.628;2023-04-24T00:55:44;99476.19;;;11.92;36.37
76205;BME280;64986;55.672;37.628;2023-04-24T00:58:10;99480.28;;;11.88;36.79
76205;BME280;64986;55.672;37.628;2023-04-24T01:00:36;99471.16;;;11.84;36.60
76205;BME280;64986;55.672;37.628;2023-04-24T01:03:04;99484.00;;;11.81;37.32
76205;BME280;64986;55.672;37.628;2023-04-24T01:05:30;99463.53;;;11.70;36.68
76205;BME280;64986;55.672;37.628;2023-04-24T01:07:56;99474.47;;;11.73;36.96
76205;BME280;64986;55.672;37.628;2023-04-24T01:10:22;99476.31;;;11.73;37.13
76205;BME280;64986;55.672;37.628;2023-04-24T01:12:50;99473.69;;;11.66;37.57
76205;BME280;64986;55.672;37.628;2023-04-24T01:15:15;99484.25;;;11.66;37.03
76205;BME280;64986;55.672;37.628;2023-04-24T01:17:40;99471.31;;;11.58;37.84
76205;BME280;64986;55.672;37.628;2023-04-24T01:20:06;99469.94;;;11.49;37.83
76205;BME280;64986;55.672;37.628;2023-04-24T01:22:33;99460.66;;;11.39;38.54
76205;BME280;64986;55.672;37.628;2023-04-24T01:24:59;99462.16;;;11.22;39.09
76205;BME280;64986;55.672;37.628;2023-04-24T01:27:25;99466.84;;;11.20;38.94
76205;BME280;64986;55.672;37.628;2023-04-24T01:29:50;99467.25;;;11.17;38.69
76205;BME280;64986;55.672;37.628;2023-04-24T01:32:17;99465.03;;;11.14;38.88
76205;BME280;64986;55.672;37.628;2023-04-24T01:34:43;99467.44;;;11.16;38.77
76205;BME280;64986;55.672;37.628;2023-04-24T01:37:09;99475.13;;;11.17;38.56
76205;BME280;64986;55.672;37.628;2023-04-24T01:39:35;99468.84;;;11.18;37.83
76205;BME280;64986;55.672;37.628;2023-04-24T01:42:01;99464.56;;;11.30;37.84
76205;BME280;64986;55.672;37.628;2023-04-24T01:44:27;99462.47;;;11.39;37.56
76205;BME280;64986;55.672;37.628;2023-04-24T01:46:54;99463.91;;;11.42;37.17
76205;BME280;64986;55.672;37.628;2023-04-24T01:49:20;99459.25;;;11.37;37.75
76205;BME280;64986;55.672;37.628;2023-04-24T01:51:45;99460.88;;;11.38;37.68
76205;BME280;64986;55.672;37.628;2023-04-24T01:54:12;99462.25;;;11.40;37.93
76205;BME280;64986;55.672;37.628;2023-04-24T01:56:40;99455.38;;;11.39;37.87
76205;BME280;64986;55.672;37.628;2023-04-24T01:59:09;99461.28;;;11.35;37.50
76205;BME280;64986;55.672;37.628;2023-04-24T02:01:35;99457.22;;;11.32;37.81
76205;BME280;64986;55.672;37.628;2023-04-24T02:04:02;99459.28;;;11.30;37.76
76205;BME280;64986;55.672;37.628;2023-04-24T02:06:27;99459.88;;;11.32;37.42
76205;BME280;64986;55.672;37.628;2023-04-24T02:08:53;99461.06;;;11.43;36.84
76205;BME280;64986;55.672;37.628;2023-04-24T02:11:18;99455.59;;;11.38;37.42
76205;BME280;64986;55.672;37.628;2023-04-24T02:13:44;99459.81;;;11.46;37.15
76205;BME280;64986;55.672;37.628;2023-04-24T02:16:10;99460.00;;;11.51;37.02
76205;BME280;64986;55.672;37.628;2023-04-24T02:18:35;99457.94;;;11.53;37.17
76205;BME280;64986;55.672;37.628;2023-04-24T02:21:01;99463.03;;;11.48;37.40
76205;BME280;64986;55.672;37.628;2023-04-24T02:23:26;99453.75;;;11.38;37.42
76205;BME280;64986;55.672;37.628;2023-04-24T02:25:52;99466.47;;;11.48;37.00
76205;BME280;64986;55.672;37.628;2023-04-24T02:28:18;99466.66;;;11.53;37.46
76205;BME280;64986;55.672;37.628;2023-04-24T02:30:44;99460.38;;;11.54;37.61
76205;BME280;64986;55.672;37.628;2023-04-24T02:33:11;99466.88;;;11.52;37.32
76205;BME280;64986;55.672;37.628;2023-04-24T02:35:36;99467.69;;;11.52;37.23
76205;BME280;64986;55.672;37.628;2023-04-24T02:38:02;99472.97;;;11.52;37.34
76205;BME280;64986;55.672;37.628;2023-04-24T02:40:28;99471.13;;;11.53;36.75
76205;BME280;64986;55.672;37.628;2023-04-24T02:42:54;99473.94;;;11.58;37.05
76205;BME280;64986;55.672;37.628;2023-04-24T02:45:20;99458.75;;;11.53;37.00
76205;BME280;64986;55.672;37.628;2023-04-24T02:47:45;99477.56;;;11.63;37.12
76205;BME280;64986;55.672;37.628;2023-04-24T02:50:11;99479.78;;;11.66;36.67
76205;BME280;64986;55.672;37.628;2023-04-24T02:52:36;99479.78;;;11.66;37.00
76205;BME280;64986;55.672;37.628;2023-04-24T02:55:02;99482.97;;;11.75;36.88
76205;BME280;64986;55.672;37.628;2023-04-24T02:57:27;99482.16;;;11.81;36.80
76205;BME280;64986;55.672;37.628;2023-04-24T02:59:53;99484.97;;;11.86;36.45
76205;BME280;64986;55.672;37.628;2023-04-24T03:02:18;99488.97;;;11.96;35.93
76205;BME280;64986;55.672;37.628;2023-04-24T03:04:46;99489.13;;;12.01;36.77
76205;BME280;64986;55.672;37.628;2023-04-24T03:07:13;99482.63;;;12.03;36.16
76205;BME280;64986;55.672;37.628;2023-04-24T03:09:40;99487.25;;;12.08;35.88
76205;BME280;64986;55.672;37.628;2023-04-24T03:12:06;99490.28;;;12.11;36.60
76205;BME280;64986;55.672;37.628;2023-04-24T03:14:31;99489.88;;;12.08;36.59
76205;BME280;64986;55.672;37.628;2023-04-24T03:16:57;99495.13;;;12.14;36.03
76205;BME280;64986;55.672;37.628;2023-04-24T03:19:22;99498.16;;;12.18;36.67
76205;BME280;64986;55.672;37.628;2023-04-24T03:21:48;99499.75;;;12.19;36.14
76205;BME280;64986;55.672;37.628;2023-04-24T03:24:14;99488.97;;;12.20;36.62
76205;BME280;64986;55.672;37.628;2023-04-24T03:26:40;99482.34;;;12.11;36.46
76205;BME280;64986;55.672;37.628;2023-04-24T03:29:05;99501.72;;;12.23;36.00
76205;BME280;64986;55.672;37.628;2023-04-24T03:31:31;99496.84;;;12.27;36.47
76205;BME280;64986;55.672;37.628;2023-04-24T03:33:56;99494.97;;;12.34;35.99
76205;BME280;64986;55.672;37.628;2023-04-24T03:36:22;99490.50;;;12.35;36.18
76205;BME280;64986;55.672;37.628;2023-04-24T03:38:47;99483.81;;;12.32;36.10
76205;BME280;64986;55.672;37.628;2023-04-24T03:41:12;99500.56;;;12.44;36.15
76205;BME280;64986;55.672;37.628;2023-04-24T03:43:38;99501.59;;;12.43;36.00
76205;BME280;64986;55.672;37.628;2023-04-24T03:46:05;99497.41;;;12.54;35.58
76205;BME280;64986;55.672;37.628;2023-04-24T03:48:30;99502.69;;;12.54;36.33
76205;BME280;64986;55.672;37.628;2023-04-24T03:50:56;99500.00;;;12.61;35.80
76205;BME280;64986;55.672;37.628;2023-04-24T03:53:21;99507.66;;;12.69;35.83
76205;BME280;64986;55.672;37.628;2023-04-24T03:55:47;99509.88;;;12.72;36.23
76205;BME280;64986;55.672;37.628;2023-04-24T03:58:12;99504.53;;;12.78;35.86
76205;BME280;64986;55.672;37.628;2023-04-24T04:00:41;99502.97;;;12.89;36.01
76205;BME280;64986;55.672;37.628;2023-04-24T04:03:07;99508.66;;;12.93;35.36
76205;BME280;64986;55.672;37.628;2023-04-24T04:05:32;99509.16;;;13.01;35.16
76205;BME280;64986;55.672;37.628;2023-04-24T04:07:58;99513.56;;;13.08;35.42
76205;BME280;64986;55.672;37.628;2023-04-24T04:10:23;99502.91;;;13.14;35.26
76205;BME280;64986;55.672;37.628;2023-04-24T04:12:49;99510.78;;;13.21;34.97
76205;BME280;64986;55.672;37.628;2023-04-24T04:15:14;99506.38;;;13.33;35.18
76205;BME280;64986;55.672;37.628;2023-04-24T04:17:40;99508.16;;;13.39;35.07
76205;BME280;64986;55.672;37.628;2023-04-24T04:20:06;99508.88;;;13.46;34.88
76205;BME280;64986;55.672;37.628;2023-04-24T04:22:35;99516.50;;;13.54;34.29
76205;BME280;64986;55.672;37.628;2023-04-24T04:25:00;99510.91;;;13.63;34.47
76205;BME280;64986;55.672;37.628;2023-04-24T04:27:26;99514.03;;;13.71;34.36
76205;BME280;64986;55.672;37.628;2023-04-24T04:29:52;99519.00;;;13.79;34.31
76205;BME280;64986;55.672;37.628;2023-04-24T04:32:17;99521.09;;;13.89;33.88
76205;BME280;64986;55.672;37.628;2023-04-24T04:34:43;99517.34;;;13.97;33.72
76205;BME280;64986;55.672;37.628;2023-04-24T04:37:10;99516.09;;;13.99;33.71
76205;BME280;64986;55.672;37.628;2023-04-24T04:39:37;99514.16;;;14.06;33.51
76205;BME280;64986;55.672;37.628;2023-04-24T04:42:03;99519.13;;;14.14;33.29
76205;BME280;64986;55.672;37.628;2023-04-24T04:44:29;99523.28;;;14.22;33.14
76205;BME280;64986;55.672;37.628;2023-04-24T04:46:56;99523.75;;;14.31;32.68
76205;BME280;64986;55.672;37.628;2023-04-24T04:49:22;99522.72;;;14.32;32.77
76205;BME280;64986;55.672;37.628;2023-04-24T04:51:49;99529.19;;;14.36;32.53
76205;BME280;64986;55.672;37.628;2023-04-24T04:54:16;99517.00;;;14.47;32.83
76205;BME280;64986;55.672;37.628;2023-04-24T04:56:41;99528.41;;;14.47;32.41
76205;BME280;64986;55.672;37.628;2023-04-24T04:59:07;99526.00;;;14.57;32.44
76205;BME280;64986;55.672;37.628;2023-04-24T05:01:32;99524.63;;;14.66;32.59
76205;BME280;64986;55.672;37.628;2023-04-24T05:03:58;99526.34;;;14.73;32.49
76205;BME280;64986;55.672;37.628;2023-04-24T05:06:24;99523.34;;;14.81;32.59
76205;BME280;64986;55.672;37.628;2023-04-24T05:08:50;99527.84;;;14.92;32.29
76205;BME280;64986;55.672;37.628;2023-04-24T05:11:16;99526.31;;;14.96;32.67
76205;BME280;64986;55.672;37.628;2023-04-24T05:13:42;99521.84;;;14.96;32.75
76205;BME280;64986;55.672;37.628;2023-04-24T05:16:07;99529.47;;;15.05;32.79
76205;BME280;64986;55.672;37.628;2023-04-24T05:18:32;99517.56;;;15.07;32.51
76205;BME280;64986;55.672;37.628;2023-04-24T05:20:58;99537.38;;;15.16;32.46
76205;BME280;64986;55.672;37.628;2023-04-24T05:23:24;99528.72;;;15.21;32.56
76205;BME280;64986;55.672;37.628;2023-04-24T05:25:49;99534.97;;;15.26;32.44
76205;BME280;64986;55.672;37.628;2023-04-24T05:28:15;99526.03;;;15.33;32.46
76205;BME280;64986;55.672;37.628;2023-04-24T05:30:40;99533.63;;;15.41;32.43
76205;BME280;64986;55.672;37.628;2023-04-24T05:33:06;99526.94;;;15.50;32.22
76205;BME280;64986;55.672;37.628;2023-04-24T05:35:31;99532.44;;;15.60;32.08
76205;BME280;64986;55.672;37.628;2023-04-24T05:37:57;99531.16;;;15.63;32.15
76205;BME280;64986;55.672;37.628;2023-04-24T05:40:22;99531.13;;;15.74;31.92
76205;BME280;64986;55.672;37.628;2023-04-24T05:42:48;99531.13;;;15.74;31.92
76205;BME280;64986;55.672;37.628;2023-04-24T05:45:13;99535.28;;;15.99;31.47
76205;BME280;64986;55.672;37.628;2023-04-24T05:47:42;99516.22;;;16.02;31.56
76205;BME280;64986;55.672;37.628;2023-04-24T05:50:09;99526.22;;;16.12;31.22
76205;BME280;64986;55.672;37.628;2023-04-24T05:52:35;99527.44;;;16.21;31.18
76205;BME280;64986;55.672;37.628;2023-04-24T05:55:00;99523.34;;;16.30;30.40
76205;BME280;64986;55.672;37.628;2023-04-24T05:57:26;99527.19;;;16.39;30.88
76205;BME280;64986;55.672;37.628;2023-04-24T05:59:52;99527.19;;;16.39;30.88
76205;BME280;64986;55.672;37.628;2023-04-24T06:02:17;99532.53;;;16.56;30.83
76205;BME280;64986;55.672;37.628;2023-04-24T06:04:43;99526.81;;;16.64;30.66
76205;BME280;64986;55.672;37.628;2023-04-24T06:07:13;99530.13;;;16.71;30.37
76205;BME280;64986;55.672;37.628;2023-04-24T06:09:38;99527.91;;;16.85;29.83
76205;BME280;64986;55.672;37.628;2023-04-24T06:12:04;99528.78;;;16.90;29.55
76205;BME280;64986;55.672;37.628;2023-04-24T06:14:29;99524.66;;;17.00;29.38
76205;BME280;64986;55.672;37.628;2023-04-24T06:16:55;99514.53;;;16.97;28.77
76205;BME280;64986;55.672;37.628;2023-04-24T06:19:20;99524.72;;;17.05;29.17
76205;BME280;64986;55.672;37.628;2023-04-24T06:21:46;99529.34;;;17.09;29.18
76205;BME280;64986;55.672;37.628;2023-04-24T06:24:14;99532.09;;;17.19;29.37
76205;BME280;64986;55.672;37.628;2023-04-24T06:26:41;99534.88;;;17.30;29.35
76205;BME280;64986;55.672;37.628;2023-04-24T06:29:06;99536.63;;;17.41;28.45
76205;BME280;64986;55.672;37.628;2023-04-24T06:31:32;99523.63;;;17.44;28.60
76205;BME280;64986;55.672;37.628;2023-04-24T06:34:02;99529.00;;;17.50;28.62
76205;BME280;64986;55.672;37.628;2023-04-24T06:36:28;99537.16;;;17.65;28.22
76205;BME280;64986;55.672;37.628;2023-04-24T06:38:54;99522.91;;;17.71;28.30
76205;BME280;64986;55.672;37.628;2023-04-24T06:41:19;99537.91;;;17.82;27.72
76205;BME280;64986;55.672;37.628;2023-04-24T06:43:45;99529.97;;;17.87;27.62
76205;BME280;64986;55.672;37.628;2023-04-24T06:46:10;99526.88;;;17.95;27.55
76205;BME280;64986;55.672;37.628;2023-04-24T06:48:37;99528.59;;;18.07;27.51
76205;BME280;64986;55.672;37.628;2023-04-24T06:51:02;99536.56;;;18.07;27.65
76205;BME280;64986;55.672;37.628;2023-04-24T06:53:28;99530.22;;;18.13;27.66
76205;BME280;64986;55.672;37.628;2023-04-24T06:55:54;99536.13;;;18.15;26.75
76205;BME280;64986;55.672;37.628;2023-04-24T06:58:20;99529.53;;;18.22;26.60
76205;BME280;64986;55.672;37.628;2023-04-24T07:00:45;99536.41;;;18.18;26.39
76205;BME280;64986;55.672;37.628;2023-04-24T07:03:11;99520.19;;;18.25;26.39
76205;BME280;64986;55.672;37.628;2023-04-24T07:05:36;99537.06;;;18.36;26.03
76205;BME280;64986;55.672;37.628;2023-04-24T07:08:03;99536.84;;;18.42;26.17
76205;BME280;64986;55.672;37.628;2023-04-24T07:10:29;99540.16;;;18.54;25.86
76205;BME280;64986;55.672;37.628;2023-04-24T07:12:55;99540.16;;;18.54;25.04
76205;BME280;64986;55.672;37.628;2023-04-24T07:15:23;99550.72;;;18.39;24.49
76205;BME280;64986;55.672;37.628;2023-04-24T07:17:49;99544.06;;;18.42;24.60
76205;BME280;64986;55.672;37.628;2023-04-24T07:20:15;99545.72;;;18.48;24.52
76205;BME280;64986;55.672;37.628;2023-04-24T07:22:40;99542.06;;;18.59;24.25
76205;BME280;64986;55.672;37.628;2023-04-24T07:25:06;99531.09;;;18.55;24.49
76205;BME280;64986;55.672;37.628;2023-04-24T07:27:33;99545.22;;;18.56;23.77
76205;BME280;64986;55.672;37.628;2023-04-24T07:29:59;99540.91;;;18.45;24.36
76205;BME280;64986;55.672;37.628;2023-04-24T07:32:24;99533.69;;;18.45;24.61
76205;BME280;64986;55.672;37.628;2023-04-24T07:34:50;99553.03;;;18.63;24.28
76205;BME280;64986;55.672;37.628;2023-04-24T07:37:15;99537.31;;;18.66;24.22
76205;BME280;64986;55.672;37.628;2023-04-24T07:39:41;99544.72;;;18.91;23.86
76205;BME280;64986;55.672;37.628;2023-04-24T07:42:07;99536.97;;;18.90;23.88
76205;BME280;64986;55.672;37.628;2023-04-24T07:44:32;99538.28;;;18.87;23.87
76205;BME280;64986;55.672;37.628;2023-04-24T07:46:58;99531.69;;;19.00;23.49
76205;BME280;64986;55.672;37.628;2023-04-24T07:49:23;99545.06;;;19.10;23.39
76205;BME280;64986;55.672;37.628;2023-04-24T07:51:49;99536.38;;;19.30;23.25
76205;BME280;64986;55.672;37.628;2023-04-24T07:54:15;99528.91;;;19.32;22.96
76205;BME280;64986;55.672;37.628;2023-04-24T07:56:41;99535.34;;;19.46;22.79
76205;BME280;64986;55.672;37.628;2023-04-24T07:59:08;99529.69;;;19.32;23.11
76205;BME280;64986;55.672;37.628;2023-04-24T08:01:35;99530.03;;;19.46;22.79
76205;BME280;64986;55.672;37.628;2023-04-24T08:04:01;99530.22;;;19.29;22.62
76205;BME280;64986;55.672;37.628;2023-04-24T08:06:27;99532.59;;;19.26;22.31
76205;BME280;64986;55.672;37.628;2023-04-24T08:08:56;99531.63;;;19.47;22.32
76205;BME280;64986;55.672;37.628;2023-04-24T08:11:22;99529.03;;;19.62;22.06
76205;BME280;64986;55.672;37.628;2023-04-24T08:13:47;99529.06;;;19.78;21.79
76205;BME280;64986;55.672;37.628;2023-04-24T08:16:13;99518.88;;;19.59;21.68
76205;BME280;64986;55.672;37.628;2023-04-24T08:18:38;99525.22;;;19.48;21.94
76205;BME280;64986;55.672;37.628;2023-04-24T08:21:04;99533.47;;;19.41;22.09
76205;BME280;64986;55.672;37.628;2023-04-24T08:23:29;99535.31;;;19.41;21.90
76205;BME280;64986;55.672;37.628;2023-04-24T08:25:55;99528.66;;;19.38;21.57
76205;BME280;64986;55.672;37.628;2023-04-24T08:28:21;99529.19;;;19.35;21.88
76205;BME280;64986;55.672;37.628;2023-04-24T08:30:47;99528.91;;;19.42;21.74
76205;BME280;64986;55.672;37.628;2023-04-24T08:33:14;99519.69;;;19.70;21.46
76205;BME280;64986;55.672;37.628;2023-04-24T08:35:40;99514.13;;;19.87;21.54
76205;BME280;64986;55.672;37.628;2023-04-24T08:38:06;99515.75;;;19.98;21.60
76205;BME280;64986;55.672;37.628;2023-04-24T08:40:33;99519.75;;;19.90;21.49
76205;BME280;64986;55.672;37.628;2023-04-24T08:42:59;99517.06;;;19.75;21.63
76205;BME280;64986;55.672;37.628;2023-04-24T08:45:28;99501.06;;;19.95;21.43
76205;BME280;64986;55.672;37.628;2023-04-24T08:47:54;99500.25;;;20.15;21.29
76205;BME280;64986;55.672;37.628;2023-04-24T08:50:22;99501.56;;;19.82;21.62
76205;BME280;64986;55.672;37.628;2023-04-24T08:52:50;99499.19;;;20.11;21.58
76205;BME280;64986;55.672;37.628;2023-04-24T08:55:16;99505.88;;;20.55;21.21
76205;BME280;64986;55.672;37.628;2023-04-24T08:57:45;99484.72;;;20.73;20.80
76205;BME280;64986;55.672;37.628;2023-04-24T09:00:11;99492.22;;;20.66;20.73
76205;BME280;64986;55.672;37.628;2023-04-24T09:02:40;99497.06;;;20.64;20.82
76205;BME280;64986;55.672;37.628;2023-04-24T09:05:08;99489.28;;;20.63;20.79
76205;BME280;64986;55.672;37.628;2023-04-24T09:07:36;99491.69;;;20.54;20.86
76205;BME280;64986;55.672;37.628;2023-04-24T09:10:05;99491.69;;;20.64;20.79
76205;BME280;64986;55.672;37.628;2023-04-24T09:12:32;99490.03;;;20.84;20.43
76205;BME280;64986;55.672;37.628;2023-04-24T09:15:00;99488.34;;;21.08;20.35
76205;BME280;64986;55.672;37.628;2023-04-24T09:17:25;99482.66;;;21.30;20.09
76205;BME280;64986;55.672;37.628;2023-04-24T09:19:53;99478.34;;;21.39;19.85
76205;BME280;64986;55.672;37.628;2023-04-24T09:22:20;99475.94;;;21.82;19.70
76205;BME280;64986;55.672;37.628;2023-04-24T09:24:45;99472.81;;;22.09;19.28
76205;BME280;64986;55.672;37.628;2023-04-24T09:27:11;99478.31;;;23.05;18.62
76205;BME280;64986;55.672;37.628;2023-04-24T09:29:37;99469.81;;;23.78;17.91
76205;BME280;64986;55.672;37.628;2023-04-24T09:32:22;99459.81;;;23.65;17.57
76205;BME280;64986;55.672;37.628;2023-04-24T09:35:08;99479.44;;;24.63;17.20
76205;BME280;64986;55.672;37.628;2023-04-24T09:37:52;99472.41;;;26.17;15.56
76205;BME280;64986;55.672;37.628;2023-04-24T09:40:19;99457.44;;;26.73;15.60
76205;BME280;64986;55.672;37.628;2023-04-24T09:42:50;99457.47;;;27.64;15.48
76205;BME280;64986;55.672;37.628;2023-04-24T09:45:16;99458.38;;;28.38;14.60
76205;BME280;64986;55.672;37.628;2023-04-24T09:47:42;99452.59;;;28.57;14.25
76205;BME280;64986;55.672;37.628;2023-04-24T09:50:15;99447.66;;;27.69;13.89
76205;BME280;64986;55.672;37.628;2023-04-24T09:52:55;99452.41;;;26.89;14.96
76205;BME280;64986;55.672;37.628;2023-04-24T09:55:21;99453.25;;;26.58;14.99
76205;BME280;64986;55.672;37.628;2023-04-24T09:57:54;99459.06;;;27.40;14.52
76205;BME280;64986;55.672;37.628;2023-04-24T10:00:31;99451.16;;;28.89;13.47
76205;BME280;64986;55.672;37.628;2023-04-24T10:03:01;99442.38;;;30.17;12.95
76205;BME280;64986;55.672;37.628;2023-04-24T10:05:29;99437.75;;;30.30;12.41
76205;BME280;64986;55.672;37.628;2023-04-24T10:08:08;99452.69;;;30.24;11.78
76205;BME280;64986;55.672;37.628;2023-04-24T10:10:38;99446.53;;;29.61;12.61
76205;BME280;64986;55.672;37.628;2023-04-24T10:13:04;99440.22;;;29.56;12.51
76205;BME280;64986;55.672;37.628;2023-04-24T10:15:30;99445.25;;;28.57;12.99
76205;BME280;64986;55.672;37.628;2023-04-24T10:17:58;99440.72;;;28.23;12.97
76205;BME280;64986;55.672;37.628;2023-04-24T10:20:27;99436.13;;;26.32;14.43
76205;BME280;64986;55.672;37.628;2023-04-24T10:22:54;99442.59;;;25.99;14.76
76205;BME280;64986;55.672;37.628;2023-04-24T10:25:22;99440.28;;;26.69;14.57
76205;BME280;64986;55.672;37.628;2023-04-24T10:27:49;99432.94;;;27.09;14.40
76205;BME280;64986;55.672;37.628;2023-04-24T10:30:16;99430.25;;;27.09;14.26
76205;BME280;64986;55.672;37.628;2023-04-24T10:32:42;99425.63;;;28.60;13.46
76205;BME280;64986;55.672;37.628;2023-04-24T10:35:08;99418.44;;;30.92;12.03
76205;BME280;64986;55.672;37.628;2023-04-24T10:37:40;99426.47;;;32.73;10.63
76205;BME280;64986;55.672;37.628;2023-04-24T10:40:07;99414.41;;;32.26;10.96
76205;BME280;64986;55.672;37.628;2023-04-24T10:42:34;99420.66;;;30.29;11.69
76205;BME280;64986;55.672;37.628;2023-04-24T10:45:05;99411.75;;;29.63;11.86
76205;BME280;64986;55.672;37.628;2023-04-24T10:47:40;99417.00;;;28.20;12.79
76205;BME280;64986;55.672;37.628;2023-04-24T10:50:10;99411.97;;;27.23;13.26
76205;BME280;64986;55.672;37.628;2023-04-24T10:52:46;99409.72;;;26.51;13.84
76205;BME280;64986;55.672;37.628;2023-04-24T10:55:13;99412.09;;;27.96;13.32
76205;BME280;64986;55.672;37.628;2023-04-24T10:58:03;99413.09;;;30.96;11.34
76205;BME280;64986;55.672;37.628;2023-04-24T11:00:29;99411.59;;;32.07;10.99
76205;BME280;64986;55.672;37.628;2023-04-24T11:02:54;99405.63;;;34.62;9.54
76205;BME280;64986;55.672;37.628;2023-04-24T11:05:21;99397.59;;;36.03;8.60
76205;BME280;64986;55.672;37.628;2023-04-24T11:08:15;99401.44;;;36.91;7.75
76205;BME280;64986;55.672;37.628;2023-04-24T11:10:46;99389.91;;;35.12;8.36
76205;BME280;64986;55.672;37.628;2023-04-24T11:13:21;99390.22;;;36.07;8.15
76205;BME280;64986;55.672;37.628;2023-04-24T11:16:19;99389.78;;;35.31;8.79
76205;BME280;64986;55.672;37.628;2023-04-24T11:18:51;99391.88;;;34.35;9.36
76205;BME280;64986;55.672;37.628;2023-04-24T11:21:18;99391.13;;;34.12;9.11
76205;BME280;64986;55.672;37.628;2023-04-24T11:23:45;99390.09;;;34.69;8.99
76205;BME280;64986;55.672;37.628;2023-04-24T11:28:44;99379.38;;;35.81;8.23
76205;BME280;64986;55.672;37.628;2023-04-24T11:31:46;99378.28;;;34.39;9.05
76205;BME280;64986;55.672;37.628;2023-04-24T11:34:17;99375.28;;;35.64;8.34
76205;BME280;64986;55.672;37.628;2023-04-24T11:36:44;99376.63;;;37.60;7.59
76205;BME280;64986;55.672;37.628;2023-04-24T11:39:10;99372.41;;;35.20;8.41
76205;BME280;64986;55.672;37.628;2023-04-24T11:41:37;99368.41;;;35.10;8.70
76205;BME280;64986;55.672;37.628;2023-04-24T11:44:06;99371.28;;;35.54;8.26
76205;BME280;64986;55.672;37.628;2023-04-24T11:46:32;99354.59;;;35.33;8.48
76205;BME280;64986;55.672;37.628;2023-04-24T11:48:58;99359.78;;;34.82;8.92
76205;BME280;64986;55.672;37.628;2023-04-24T11:51:26;99368.38;;;35.40;8.48
76205;BME280;64986;55.672;37.628;2023-04-24T11:53:53;99362.13;;;33.84;9.37
76205;BME280;64986;55.672;37.628;2023-04-24T11:56:21;99344.06;;;34.75;8.90
76205;BME280;64986;55.672;37.628;2023-04-24T11:58:47;99346.56;;;31.46;9.76
76205;BME280;64986;55.672;37.628;2023-04-24T12:01:13;99350.63;;;30.47;10.54
76205;BME280;64986;55.672;37.628;2023-04-24T12:03:39;99348.47;;;33.23;9.31
76205;BME280;64986;55.672;37.628;2023-04-24T12:06:08;99339.72;;;34.21;8.72
76205;BME280;64986;55.672;37.628;2023-04-24T12:08:34;99341.41;;;35.09;8.57
76205;BME280;64986;55.672;37.628;2023-04-24T12:11:01;99338.03;;;32.54;9.77
76205;BME280;64986;55.672;37.628;2023-04-24T12:13:27;99335.63;;;30.04;10.79
76205;BME280;64986;55.672;37.628;2023-04-24T12:15:52;99338.09;;;30.95;10.21
76205;BME280;64986;55.672;37.628;2023-04-24T12:18:18;99318.00;;;33.82;8.67
76205;BME280;64986;55.672;37.628;2023-04-24T12:20:43;99328.53;;;35.87;8.03
76205;BME280;64986;55.672;37.628;2023-04-24T12:23:09;99341.09;;;36.36;7.84
76205;BME280;64986;55.672;37.628;2023-04-24T12:25:34;99321.59;;;34.36;8.23
76205;BME280;64986;55.672;37.628;2023-04-24T12:30:33;99322.66;;;36.95;7.38
76205;BME280;64986;55.672;37.628;2023-04-24T12:32:59;99317.94;;;36.92;7.00
76205;BME280;64986;55.672;37.628;2023-04-24T12:35:27;99326.97;;;35.86;7.72
76205;BME280;64986;55.672;37.628;2023-04-24T12:37:53;99318.50;;;34.90;8.25
76205;BME280;64986;55.672;37.628;2023-04-24T12:40:21;99326.75;;;36.02;7.54
76205;BME280;64986;55.672;37.628;2023-04-24T12:42:50;99319.56;;;37.07;7.13
76205;BME280;64986;55.672;37.628;2023-04-24T12:45:18;99313.50;;;36.70;7.13
76205;BME280;64986;55.672;37.628;2023-04-24T12:47:44;99316.47;;;33.85;8.62
76205;BME280;64986;55.672;37.628;2023-04-24T12:50:12;99306.28;;;33.82;8.66
76205;BME280;64986;55.672;37.628;2023-04-24T12:52:38;99308.91;;;35.03;8.37
76205;BME280;64986;55.672;37.628;2023-04-24T12:55:05;99301.56;;;36.40;7.56